Time;durP1;ratioP1;P1;durP2;ratioP2;P2;SDS_P1;SDS_P2;PMS_P1;PMS_P2;Temp;Humidity;BMP_temperature;BMP_pressure;BME280_temperature;BME280_humidity;BME280_pressure;Samples;Min_cycle;Max_cycle;Signal;HPM_P1;HPM_P2
2022/03/30 00:00:52;;;;;;;;;50.75;42.00;;;;;;;;5018650;28;51224;-59
2022/03/30 00:03:18;;;;;;;;;53.75;42.25;;;;;;;;5023694;28;51089;-59
2022/03/30 00:05:43;;;;;;;;;49.50;41.75;;;;;;;;5021209;28;51009;-59
2022/03/30 00:08:08;;;;;;;;;54.75;44.00;;;;;;;;5028171;28;51262;-58
2022/03/30 00:10:34;;;;;;;;;53.75;43.25;;;;;;;;5033756;28;51073;-62
2022/03/30 00:13:00;;;;;;;;;53.00;44.25;;;;;;;;5025960;28;51722;-59
2022/03/30 00:15:26;;;;;;;;;51.50;42.75;;;;;;;;5024959;28;51158;-59
2022/03/30 00:17:51;;;;;;;;;52.75;44.00;;;;;;;;5022131;28;51274;-59
2022/03/30 00:20:16;;;;;;;;;53.25;44.00;;;;;;;;5017332;28;51146;-59
2022/03/30 00:22:42;;;;;;;;;53.75;44.25;;;;;;;;5019467;28;52970;-58
2022/03/30 00:25:09;;;;;;;;;56.00;43.75;;;;;;;;5026847;28;51100;-57
2022/03/30 00:27:34;;;;;;;;;51.00;42.00;;;;;;;;5030139;28;51159;-58
2022/03/30 00:29:59;;;;;;;;;57.50;46.25;;;;;;;;5031792;28;51217;-58
2022/03/30 00:32:25;;;;;;;;;57.00;45.75;;;;;;;;5030796;28;51733;-59
2022/03/30 00:34:50;;;;;;;;;55.50;45.25;;;;;;;;5030595;28;51256;-59
2022/03/30 00:37:15;;;;;;;;;56.25;46.00;;;;;;;;5026741;28;51009;-59
2022/03/30 00:39:40;;;;;;;;;54.50;45.00;;;;;;;;5031005;28;50938;-60
2022/03/30 00:42:16;;;;;;;;;59.00;46.75;;;;;;;;5029730;28;53081;-59
2022/03/30 00:44:41;;;;;;;;;62.75;47.25;;;;;;;;5028170;28;51111;-59
2022/03/30 00:47:33;;;;;;;;;59.00;47.25;;;;;;;;5027004;28;51206;-59
2022/03/30 00:49:58;;;;;;;;;60.50;48.25;;;;;;;;5024144;28;51368;-59
2022/03/30 00:52:23;;;;;;;;;56.75;47.25;;;;;;;;5013746;28;51750;-62
2022/03/30 00:54:50;;;;;;;;;57.75;47.75;;;;;;;;5025702;28;52332;-59
2022/03/30 00:57:17;;;;;;;;;61.00;49.00;;;;;;;;5027974;28;50933;-57
2022/03/30 00:59:42;;;;;;;;;59.00;48.25;;;;;;;;5028898;28;51088;-59
2022/03/30 01:02:08;;;;;;;;;59.25;48.25;;;;;;;;5029916;28;52352;-58
2022/03/30 01:04:33;;;;;;;;;60.75;50.50;;;;;;;;5029645;28;51410;-58
2022/03/30 01:06:59;;;;;;;;;61.75;49.50;;;;;;;;5027087;28;51289;-58
2022/03/30 01:09:25;;;;;;;;;64.25;50.00;;;;;;;;5027575;28;51370;-58
2022/03/30 01:11:51;;;;;;;;;57.50;47.75;;;;;;;;5026890;28;52987;-58
2022/03/30 01:14:17;;;;;;;;;62.75;49.00;;;;;;;;5026446;28;51459;-58
2022/03/30 01:16:42;;;;;;;;;58.50;46.25;;;;;;;;5027825;28;51111;-59
2022/03/30 01:19:09;;;;;;;;;59.75;48.00;;;;;;;;5026488;28;51150;-57
2022/03/30 01:21:35;;;;;;;;;58.00;48.00;;;;;;;;5030434;28;52383;-59
2022/03/30 01:24:00;;;;;;;;;60.00;47.25;;;;;;;;5029839;28;51231;-58
2022/03/30 01:26:26;;;;;;;;;63.50;48.50;;;;;;;;5031376;28;51206;-58
2022/03/30 01:28:51;;;;;;;;;61.75;48.75;;;;;;;;5032894;28;51108;-58
2022/03/30 01:34:00;;;;;;;;;63.50;51.00;;;;;;;;5027157;28;51115;-58
2022/03/30 01:36:25;;;;;;;;;62.50;49.50;;;;;;;;5028750;28;51152;-58
2022/03/30 01:38:51;;;;;;;;;63.75;50.50;;;;;;;;5033258;28;51133;-59
2022/03/30 01:41:16;;;;;;;;;64.50;49.75;;;;;;;;5030751;28;51095;-58
2022/03/30 01:43:41;;;;;;;;;61.50;49.75;;;;;;;;5032689;28;51033;-59
2022/03/30 01:46:06;;;;;;;;;62.50;50.50;;;;;;;;5031982;28;51632;-59
2022/03/30 01:48:32;;;;;;;;;62.75;51.25;;;;;;;;5032713;28;50985;-58
2022/03/30 01:50:57;;;;;;;;;62.00;50.25;;;;;;;;5027357;28;51788;-57
2022/03/30 01:53:22;;;;;;;;;63.50;49.75;;;;;;;;5027765;28;51087;-57
2022/03/30 01:55:47;;;;;;;;;65.75;52.00;;;;;;;;5031853;28;51692;-58
2022/03/30 01:58:12;;;;;;;;;57.50;47.75;;;;;;;;5020820;28;51417;-60
2022/03/30 02:00:38;;;;;;;;;59.50;47.75;;;;;;;;5032678;28;51916;-58
2022/03/30 02:03:03;;;;;;;;;58.50;48.00;;;;;;;;5017643;28;51282;-59
2022/03/30 02:05:31;;;;;;;;;57.00;46.75;;;;;;;;5028680;28;51034;-58
2022/03/30 02:07:56;;;;;;;;;65.00;51.00;;;;;;;;5017800;28;51391;-58
2022/03/30 02:10:22;;;;;;;;;63.50;49.50;;;;;;;;5014683;28;51025;-59
2022/03/30 02:12:47;;;;;;;;;61.50;50.00;;;;;;;;5016440;28;51283;-59
2022/03/30 02:15:13;;;;;;;;;60.25;49.00;;;;;;;;5029424;28;51242;-58
2022/03/30 02:17:39;;;;;;;;;62.00;50.50;;;;;;;;5028211;28;51110;-59
2022/03/30 02:20:05;;;;;;;;;60.00;48.75;;;;;;;;5031365;28;52883;-59
2022/03/30 02:22:30;;;;;;;;;62.25;50.75;;;;;;;;5029869;28;51253;-58
2022/03/30 02:24:56;;;;;;;;;61.75;49.00;;;;;;;;5032618;28;51314;-59
2022/03/30 02:27:21;;;;;;;;;61.25;48.50;;;;;;;;5031849;28;51197;-58
2022/03/30 02:29:51;;;;;;;;;60.25;49.25;;;;;;;;5027839;28;51048;-59
2022/03/30 02:32:16;;;;;;;;;60.25;48.00;;;;;;;;5027731;28;51072;-57
2022/03/30 02:34:42;;;;;;;;;59.50;49.00;;;;;;;;5029972;28;51456;-58
2022/03/30 02:37:08;;;;;;;;;64.00;50.25;;;;;;;;5031673;28;51004;-59
2022/03/30 02:39:33;;;;;;;;;58.75;48.25;;;;;;;;5019307;28;51844;-59
2022/03/30 02:41:59;;;;;;;;;62.00;50.50;;;;;;;;5033482;28;51307;-58
2022/03/30 02:44:24;;;;;;;;;58.25;48.00;;;;;;;;5024473;28;50982;-59
2022/03/30 02:46:49;;;;;;;;;61.50;50.50;;;;;;;;5029618;28;51164;-57
2022/03/30 02:49:14;;;;;;;;;59.50;48.75;;;;;;;;5026060;28;51800;-59
2022/03/30 02:51:40;;;;;;;;;61.00;50.50;;;;;;;;5030801;28;51091;-58
2022/03/30 02:54:05;;;;;;;;;61.50;50.25;;;;;;;;5028301;28;51059;-58
2022/03/30 02:56:30;;;;;;;;;64.75;50.25;;;;;;;;5034134;28;51106;-59
2022/03/30 02:58:56;;;;;;;;;61.50;48.75;;;;;;;;5028557;28;51149;-58
2022/03/30 03:01:21;;;;;;;;;63.75;51.50;;;;;;;;5023543;28;51214;-58
2022/03/30 03:03:46;;;;;;;;;61.50;49.50;;;;;;;;5024840;28;51409;-59
2022/03/30 03:06:12;;;;;;;;;62.50;50.50;;;;;;;;5031274;28;50978;-58
2022/03/30 03:08:37;;;;;;;;;67.25;52.25;;;;;;;;5028367;28;52862;-59
2022/03/30 03:11:03;;;;;;;;;62.75;50.50;;;;;;;;5029221;28;50956;-58
2022/03/30 03:13:28;;;;;;;;;61.00;49.50;;;;;;;;5031747;28;51215;-58
2022/03/30 03:15:53;;;;;;;;;66.75;51.75;;;;;;;;5026225;28;51275;-59
2022/03/30 03:18:19;;;;;;;;;64.50;50.00;;;;;;;;5031756;28;51167;-58
2022/03/30 03:20:45;;;;;;;;;63.50;49.25;;;;;;;;5022703;28;51002;-58
2022/03/30 03:23:11;;;;;;;;;67.75;51.50;;;;;;;;5025791;28;51076;-59
2022/03/30 03:25:37;;;;;;;;;58.50;47.75;;;;;;;;5029421;28;51154;-59
2022/03/30 03:28:03;;;;;;;;;66.25;53.00;;;;;;;;5027971;28;52264;-58
2022/03/30 03:30:28;;;;;;;;;68.00;53.00;;;;;;;;5028654;28;51258;-58
2022/03/30 03:32:54;;;;;;;;;66.75;53.00;;;;;;;;5028481;28;51322;-60
2022/03/30 03:35:19;;;;;;;;;71.50;56.00;;;;;;;;5026427;28;52759;-58
2022/03/30 03:37:45;;;;;;;;;69.00;54.25;;;;;;;;5019458;28;52063;-57
2022/03/30 03:40:10;;;;;;;;;76.75;60.50;;;;;;;;5028109;28;51030;-58
2022/03/30 03:42:36;;;;;;;;;76.75;59.75;;;;;;;;5026452;28;51263;-58
2022/03/30 03:45:02;;;;;;;;;74.75;58.25;;;;;;;;5025884;28;51051;-58
2022/03/30 03:47:28;;;;;;;;;75.25;58.00;;;;;;;;5027436;28;53888;-58
2022/03/30 03:49:53;;;;;;;;;70.00;56.25;;;;;;;;5030376;28;51368;-58
2022/03/30 03:52:18;;;;;;;;;72.00;57.00;;;;;;;;5030444;28;50851;-58
2022/03/30 03:54:43;;;;;;;;;78.25;63.75;;;;;;;;5034634;28;51091;-58
2022/03/30 03:57:09;;;;;;;;;71.50;55.75;;;;;;;;5031355;28;51046;-59
2022/03/30 03:59:35;;;;;;;;;70.00;57.00;;;;;;;;5030912;28;51128;-58
2022/03/30 04:02:00;;;;;;;;;69.50;55.50;;;;;;;;5028102;28;51257;-58
2022/03/30 04:04:25;;;;;;;;;75.25;58.50;;;;;;;;5026572;28;51109;-58
2022/03/30 04:06:51;;;;;;;;;74.50;58.00;;;;;;;;5018953;28;51083;-58
2022/03/30 04:09:16;;;;;;;;;70.25;57.00;;;;;;;;5021212;28;51148;-58
2022/03/30 04:11:41;;;;;;;;;73.75;57.75;;;;;;;;5021050;28;51269;-58
2022/03/30 04:14:07;;;;;;;;;72.75;56.75;;;;;;;;5023127;28;51262;-57
2022/03/30 04:16:33;;;;;;;;;74.75;57.25;;;;;;;;5029952;28;53506;-57
2022/03/30 04:18:58;;;;;;;;;74.00;58.00;;;;;;;;5028607;28;51012;-59
2022/03/30 04:21:23;;;;;;;;;72.25;57.25;;;;;;;;5014599;28;51115;-59
2022/03/30 04:23:48;;;;;;;;;69.75;56.50;;;;;;;;5025109;28;51113;-59
2022/03/30 04:26:14;;;;;;;;;73.50;58.00;;;;;;;;5017709;28;52076;-59
2022/03/30 04:28:40;;;;;;;;;74.50;58.25;;;;;;;;5024786;28;51183;-59
2022/03/30 04:31:09;;;;;;;;;74.00;58.50;;;;;;;;5028088;28;51123;-58
2022/03/30 04:33:34;;;;;;;;;72.50;56.00;;;;;;;;5022378;28;51301;-57
2022/03/30 04:36:00;;;;;;;;;73.50;56.75;;;;;;;;5027711;28;52862;-59
2022/03/30 04:38:25;;;;;;;;;71.75;57.25;;;;;;;;5035711;28;50953;-57
2022/03/30 04:40:50;;;;;;;;;75.00;58.25;;;;;;;;5026900;28;51181;-58
2022/03/30 04:43:15;;;;;;;;;73.50;59.00;;;;;;;;5026463;28;51163;-58
2022/03/30 04:45:40;;;;;;;;;74.00;58.50;;;;;;;;5024527;28;52619;-57
2022/03/30 04:48:06;;;;;;;;;74.25;60.25;;;;;;;;5036440;28;51987;-58
2022/03/30 04:50:31;;;;;;;;;76.25;60.50;;;;;;;;5023443;28;51160;-61
2022/03/30 04:52:56;;;;;;;;;75.25;58.50;;;;;;;;5029407;28;51064;-58
2022/03/30 04:55:22;;;;;;;;;77.50;63.25;;;;;;;;5033860;28;51687;-59
2022/03/30 04:57:47;;;;;;;;;76.00;58.75;;;;;;;;5033792;28;51027;-59
2022/03/30 05:00:13;;;;;;;;;80.75;66.50;;;;;;;;5035147;28;51219;-59
2022/03/30 05:02:40;;;;;;;;;74.75;57.50;;;;;;;;5031886;28;51385;-59
2022/03/30 05:05:05;;;;;;;;;75.50;58.00;;;;;;;;5032255;28;52724;-59
2022/03/30 05:07:31;;;;;;;;;74.00;58.75;;;;;;;;5034747;28;51759;-59
2022/03/30 05:09:57;;;;;;;;;76.25;63.50;;;;;;;;5036692;28;51168;-58
2022/03/30 05:12:23;;;;;;;;;77.75;60.75;;;;;;;;5036359;28;50974;-58
2022/03/30 05:14:49;;;;;;;;;75.25;61.50;;;;;;;;5036533;28;54417;-58
2022/03/30 05:17:15;;;;;;;;;73.25;56.00;;;;;;;;5030772;28;51193;-58
2022/03/30 05:19:40;;;;;;;;;72.50;58.50;;;;;;;;5030129;28;51053;-58
2022/03/30 05:22:05;;;;;;;;;73.00;58.00;;;;;;;;5023595;28;50933;-58
2022/03/30 05:24:30;;;;;;;;;73.25;57.00;;;;;;;;5032885;28;51670;-59
2022/03/30 05:26:56;;;;;;;;;71.50;56.75;;;;;;;;5032159;28;50985;-59
2022/03/30 05:29:21;;;;;;;;;74.00;57.25;;;;;;;;5036835;28;51066;-60
2022/03/30 05:31:46;;;;;;;;;70.25;55.00;;;;;;;;5038688;28;51340;-59
2022/03/30 05:34:12;;;;;;;;;74.00;58.25;;;;;;;;5023273;28;51879;-59
2022/03/30 05:36:37;;;;;;;;;71.00;55.75;;;;;;;;5024508;28;51103;-59
2022/03/30 05:39:02;;;;;;;;;74.25;57.00;;;;;;;;5038345;28;51601;-59
2022/03/30 05:41:28;;;;;;;;;69.50;56.00;;;;;;;;5032162;28;51337;-59
2022/03/30 05:43:53;;;;;;;;;72.00;57.00;;;;;;;;5032577;28;52097;-59
2022/03/30 05:46:18;;;;;;;;;70.75;56.00;;;;;;;;5027040;28;51078;-59
2022/03/30 05:48:43;;;;;;;;;72.25;57.00;;;;;;;;5034908;28;51250;-59
2022/03/30 05:51:09;;;;;;;;;69.00;55.50;;;;;;;;5034691;28;51052;-59
2022/03/30 05:53:34;;;;;;;;;71.00;57.75;;;;;;;;5034699;28;51846;-59
2022/03/30 05:56:00;;;;;;;;;72.50;56.25;;;;;;;;5027928;28;50899;-58
2022/03/30 05:58:25;;;;;;;;;73.25;56.50;;;;;;;;5015061;28;51267;-59
2022/03/30 06:00:50;;;;;;;;;69.50;55.00;;;;;;;;5015916;28;50952;-59
2022/03/30 06:03:16;;;;;;;;;73.75;58.00;;;;;;;;5015083;28;51064;-58
2022/03/30 06:05:42;;;;;;;;;74.00;59.00;;;;;;;;5021005;28;51073;-59
2022/03/30 06:08:07;;;;;;;;;61.50;48.25;;;;;;;;5014778;28;51038;-59
2022/03/30 06:10:33;;;;;;;;;70.25;56.50;;;;;;;;5013271;28;51429;-58
2022/03/30 06:12:58;;;;;;;;;77.00;61.00;;;;;;;;5014397;28;51777;-59
2022/03/30 06:15:24;;;;;;;;;69.25;56.50;;;;;;;;5014453;28;52024;-58
2022/03/30 06:17:50;;;;;;;;;68.25;51.25;;;;;;;;5014318;28;50894;-58
2022/03/30 06:20:15;;;;;;;;;71.75;56.50;;;;;;;;5014424;28;51385;-58
2022/03/30 06:22:41;;;;;;;;;68.00;53.75;;;;;;;;5013270;28;51759;-58
2022/03/30 06:25:07;;;;;;;;;70.50;55.25;;;;;;;;5036340;28;51383;-58
2022/03/30 06:27:32;;;;;;;;;68.00;54.50;;;;;;;;5019588;28;51068;-58
2022/03/30 06:29:57;;;;;;;;;72.75;55.75;;;;;;;;5028267;28;51255;-58
2022/03/30 06:32:22;;;;;;;;;72.25;56.25;;;;;;;;5033215;28;51338;-58
2022/03/30 06:34:48;;;;;;;;;72.75;54.25;;;;;;;;5030955;28;51294;-58
2022/03/30 06:37:13;;;;;;;;;72.75;57.50;;;;;;;;5018643;28;52478;-57
2022/03/30 06:39:38;;;;;;;;;72.00;57.25;;;;;;;;5025898;28;52481;-58
2022/03/30 06:42:05;;;;;;;;;72.50;56.00;;;;;;;;5029287;28;51762;-58
2022/03/30 06:44:31;;;;;;;;;73.25;56.50;;;;;;;;5027685;28;50955;-59
2022/03/30 06:46:57;;;;;;;;;76.75;57.00;;;;;;;;5026039;28;51036;-58
2022/03/30 06:49:22;;;;;;;;;65.75;53.00;;;;;;;;5026995;28;51264;-58
2022/03/30 06:51:47;;;;;;;;;74.25;57.25;;;;;;;;5030225;28;52388;-58
2022/03/30 06:54:13;;;;;;;;;70.50;57.00;;;;;;;;5026118;28;51224;-58
2022/03/30 06:56:42;;;;;;;;;69.75;55.00;;;;;;;;5030154;28;51116;-59
2022/03/30 06:59:07;;;;;;;;;72.50;57.75;;;;;;;;5029255;28;51194;-61
2022/03/30 07:01:32;;;;;;;;;72.75;56.50;;;;;;;;5031183;28;52052;-58
2022/03/30 07:03:58;;;;;;;;;68.00;52.50;;;;;;;;5028916;28;51615;-59
2022/03/30 07:06:23;;;;;;;;;72.50;56.50;;;;;;;;5032355;28;51172;-59
2022/03/30 07:11:32;;;;;;;;;70.75;57.00;;;;;;;;5032789;28;51502;-58
2022/03/30 07:13:58;;;;;;;;;69.25;56.00;;;;;;;;5032611;28;51063;-59
2022/03/30 07:16:23;;;;;;;;;72.25;57.25;;;;;;;;5033052;28;51049;-58
2022/03/30 07:18:49;;;;;;;;;72.00;55.25;;;;;;;;5032658;28;51167;-58
2022/03/30 07:21:14;;;;;;;;;71.75;55.50;;;;;;;;5032698;28;53373;-58
2022/03/30 07:23:40;;;;;;;;;73.00;56.00;;;;;;;;5032897;28;51046;-59
2022/03/30 07:26:05;;;;;;;;;68.00;55.00;;;;;;;;5033198;28;51044;-58
2022/03/30 07:28:31;;;;;;;;;68.25;53.25;;;;;;;;5032783;28;51136;-59
2022/03/30 07:30:56;;;;;;;;;70.25;55.75;;;;;;;;5032621;28;51198;-59
2022/03/30 07:33:23;;;;;;;;;71.00;56.00;;;;;;;;5033058;28;51099;-57
2022/03/30 07:35:49;;;;;;;;;71.50;55.00;;;;;;;;5033224;28;50985;-59
2022/03/30 07:38:15;;;;;;;;;67.75;53.50;;;;;;;;5032987;28;51154;-58
2022/03/30 07:40:41;;;;;;;;;69.75;56.00;;;;;;;;5028402;28;51892;-59
2022/03/30 07:43:07;;;;;;;;;68.75;55.25;;;;;;;;5031489;28;51145;-58
2022/03/30 07:45:33;;;;;;;;;69.00;55.00;;;;;;;;5033066;28;51133;-59
2022/03/30 07:47:59;;;;;;;;;67.75;55.50;;;;;;;;5031796;28;51019;-58
2022/03/30 07:50:24;;;;;;;;;69.25;55.25;;;;;;;;5032633;28;51080;-59
2022/03/30 07:52:50;;;;;;;;;68.50;52.00;;;;;;;;5032278;28;51111;-59
2022/03/30 07:55:15;;;;;;;;;69.75;54.25;;;;;;;;5033714;28;51039;-58
2022/03/30 07:57:42;;;;;;;;;69.75;55.00;;;;;;;;5012956;28;51253;-59
2022/03/30 08:00:08;;;;;;;;;67.50;53.00;;;;;;;;5012480;28;52590;-58
2022/03/30 08:02:33;;;;;;;;;67.50;54.50;;;;;;;;5019521;28;50870;-59
2022/03/30 08:04:59;;;;;;;;;67.25;54.00;;;;;;;;5011594;28;51038;-58
2022/03/30 08:07:26;;;;;;;;;67.25;52.75;;;;;;;;5012626;28;50865;-60
2022/03/30 08:09:52;;;;;;;;;67.50;54.25;;;;;;;;5011514;28;51883;-59
2022/03/30 08:12:20;;;;;;;;;67.00;52.00;;;;;;;;5012572;28;50969;-59
2022/03/30 08:14:45;;;;;;;;;66.00;53.00;;;;;;;;5012837;28;51016;-58
2022/03/30 08:17:11;;;;;;;;;68.00;54.00;;;;;;;;5012490;28;51327;-58
2022/03/30 08:19:36;;;;;;;;;58.00;47.75;;;;;;;;5012306;28;52284;-59
2022/03/30 08:24:46;;;;;;;;;66.50;54.25;;;;;;;;5011304;28;51114;-58
2022/03/30 08:27:16;;;;;;;;;65.00;51.00;;;;;;;;5012701;28;51258;-59
2022/03/30 08:29:43;;;;;;;;;68.25;54.75;;;;;;;;5027810;28;51125;-59
2022/03/30 08:32:09;;;;;;;;;72.50;56.25;;;;;;;;5032197;28;51168;-59
2022/03/30 08:34:34;;;;;;;;;67.25;52.50;;;;;;;;5032611;28;51067;-59
2022/03/30 08:36:59;;;;;;;;;73.75;59.25;;;;;;;;5031981;28;51079;-58
2022/03/30 08:39:24;;;;;;;;;74.25;60.75;;;;;;;;5032398;28;51647;-59
2022/03/30 08:41:50;;;;;;;;;66.50;53.00;;;;;;;;5031840;28;51144;-58
2022/03/30 08:44:17;;;;;;;;;65.25;51.75;;;;;;;;5032312;28;51464;-59
2022/03/30 08:46:45;;;;;;;;;70.25;55.00;;;;;;;;5032210;28;50835;-59
2022/03/30 08:49:10;;;;;;;;;73.75;55.50;;;;;;;;5031920;28;51051;-59
2022/03/30 08:51:40;;;;;;;;;72.50;56.25;;;;;;;;5031754;28;50849;-59
2022/03/30 08:54:09;;;;;;;;;70.50;55.25;;;;;;;;5035625;28;51134;-58
2022/03/30 08:56:36;;;;;;;;;68.00;53.25;;;;;;;;5018040;28;51045;-58
2022/03/30 08:59:02;;;;;;;;;70.75;56.00;;;;;;;;5011930;28;52589;-58
2022/03/30 09:01:31;;;;;;;;;69.00;53.75;;;;;;;;5017595;28;51044;-59
2022/03/30 09:03:57;;;;;;;;;69.75;55.75;;;;;;;;5011867;28;50907;-60
2022/03/30 09:06:49;;;;;;;;;71.25;56.75;;;;;;;;5011363;28;50889;-58
2022/03/30 09:09:15;;;;;;;;;68.25;54.50;;;;;;;;5009026;28;52521;-58
2022/03/30 09:11:56;;;;;;;;;72.25;56.25;;;;;;;;5010459;28;51068;-58
2022/03/30 09:14:23;;;;;;;;;70.25;56.00;;;;;;;;5011449;28;51221;-58
2022/03/30 09:16:50;;;;;;;;;72.00;55.00;;;;;;;;5011604;28;50936;-57
2022/03/30 09:19:17;;;;;;;;;69.75;55.25;;;;;;;;5010958;28;51188;-59
2022/03/30 09:22:00;;;;;;;;;68.00;53.50;;;;;;;;5011767;28;50951;-59
2022/03/30 09:24:27;;;;;;;;;71.50;55.25;;;;;;;;5014776;28;51213;-59
2022/03/30 09:26:52;;;;;;;;;70.50;55.50;;;;;;;;5014957;28;50765;-59
2022/03/30 09:29:19;;;;;;;;;65.50;52.50;;;;;;;;5026552;28;51044;-59
2022/03/30 09:31:45;;;;;;;;;71.00;56.00;;;;;;;;5034469;28;51045;-58
2022/03/30 09:34:10;;;;;;;;;74.50;55.50;;;;;;;;5034252;28;50917;-58
2022/03/30 09:36:36;;;;;;;;;71.75;56.00;;;;;;;;5034143;28;50920;-58
2022/03/30 09:39:03;;;;;;;;;68.50;54.50;;;;;;;;5034011;28;51984;-58
2022/03/30 09:41:44;;;;;;;;;71.75;55.75;;;;;;;;5029840;28;51149;-58
2022/03/30 09:44:10;;;;;;;;;73.00;56.50;;;;;;;;5025991;28;50962;-59
2022/03/30 09:46:49;;;;;;;;;74.25;57.00;;;;;;;;5014662;28;51034;-59
2022/03/30 09:49:31;;;;;;;;;70.00;54.25;;;;;;;;5014129;28;50947;-58
2022/03/30 09:51:56;;;;;;;;;69.50;55.25;;;;;;;;5013966;28;50906;-60
2022/03/30 09:54:37;;;;;;;;;68.50;54.75;;;;;;;;5026460;28;51161;-58
2022/03/30 09:57:07;;;;;;;;;72.75;57.00;;;;;;;;5014849;28;51301;-59
2022/03/30 09:59:52;;;;;;;;;74.75;56.50;;;;;;;;5019603;28;51173;-58
2022/03/30 10:02:18;;;;;;;;;72.00;56.00;;;;;;;;5027461;28;50950;-59
2022/03/30 10:04:44;;;;;;;;;68.75;53.50;;;;;;;;5034102;28;51123;-63
2022/03/30 10:07:09;;;;;;;;;71.00;55.00;;;;;;;;5033950;28;51236;-58
2022/03/30 10:09:37;;;;;;;;;68.25;53.75;;;;;;;;5033695;28;51815;-58
2022/03/30 10:12:03;;;;;;;;;88.50;72.00;;;;;;;;5033799;28;51132;-58
2022/03/30 10:14:29;;;;;;;;;71.25;57.00;;;;;;;;5030601;28;50863;-59
2022/03/30 10:16:54;;;;;;;;;71.00;55.50;;;;;;;;5034031;28;51132;-59
2022/03/30 10:19:19;;;;;;;;;71.00;55.75;;;;;;;;5033387;28;51822;-58
2022/03/30 10:21:54;;;;;;;;;72.25;56.25;;;;;;;;5033451;28;50951;-58
2022/03/30 10:24:38;;;;;;;;;72.75;54.25;;;;;;;;5033835;28;51205;-59
2022/03/30 10:27:17;;;;;;;;;72.00;56.25;;;;;;;;5033667;28;51427;-57
2022/03/30 10:30:02;;;;;;;;;70.50;57.75;;;;;;;;5023558;28;52170;-58
2022/03/30 10:32:33;;;;;;;;;72.50;56.00;;;;;;;;5013244;28;51186;-59
2022/03/30 10:35:03;;;;;;;;;70.50;55.50;;;;;;;;5012363;28;51228;-59
2022/03/30 10:37:29;;;;;;;;;67.50;53.50;;;;;;;;5013726;28;51270;-59
2022/03/30 10:40:04;;;;;;;;;70.00;55.50;;;;;;;;5013402;28;51057;-59
2022/03/30 10:42:48;;;;;;;;;63.50;50.75;;;;;;;;5013755;28;51045;-60
2022/03/30 10:45:23;;;;;;;;;66.75;53.25;;;;;;;;5020691;28;51183;-60
2022/03/30 10:48:07;;;;;;;;;70.50;54.75;;;;;;;;5033694;28;51097;-59
2022/03/30 10:50:54;;;;;;;;;66.25;52.75;;;;;;;;5033326;28;51867;-59
2022/03/30 10:53:31;;;;;;;;;68.75;52.75;;;;;;;;5026451;28;51097;-59
2022/03/30 10:56:08;;;;;;;;;69.00;52.50;;;;;;;;5021652;28;50942;-58
2022/03/30 10:58:38;;;;;;;;;68.50;53.00;;;;;;;;5019257;28;51044;-59
2022/03/30 11:01:13;;;;;;;;;65.50;51.75;;;;;;;;5026035;28;51334;-58
2022/03/30 11:03:58;;;;;;;;;65.00;51.50;;;;;;;;5013346;28;50974;-58
2022/03/30 11:06:24;;;;;;;;;71.00;53.00;;;;;;;;5019897;28;51016;-59
2022/03/30 11:08:51;;;;;;;;;66.75;53.00;;;;;;;;5033341;28;52889;-59
2022/03/30 11:11:20;;;;;;;;;65.25;51.75;;;;;;;;5032957;28;51829;-59
2022/03/30 11:13:46;;;;;;;;;69.25;52.75;;;;;;;;5032847;28;50966;-58
2022/03/30 11:16:11;;;;;;;;;66.75;51.50;;;;;;;;5032689;28;51441;-60
2022/03/30 11:18:52;;;;;;;;;63.75;51.50;;;;;;;;5032545;28;51139;-59
2022/03/30 11:21:18;;;;;;;;;59.25;47.50;;;;;;;;5031919;28;50917;-59
2022/03/30 11:23:55;;;;;;;;;66.25;52.00;;;;;;;;5032162;28;50894;-59
2022/03/30 11:26:21;;;;;;;;;63.25;51.00;;;;;;;;5022720;28;51035;-60
2022/03/30 11:28:46;;;;;;;;;63.75;50.75;;;;;;;;5019907;28;50913;-60
2022/03/30 11:31:24;;;;;;;;;61.00;47.75;;;;;;;;5031398;28;51063;-59
2022/03/30 11:34:08;;;;;;;;;64.00;49.00;;;;;;;;5031738;28;50954;-59
2022/03/30 11:36:33;;;;;;;;;61.50;49.75;;;;;;;;5031816;28;50989;-60
2022/03/30 11:39:01;;;;;;;;;56.25;45.00;;;;;;;;5032017;28;50957;-58
2022/03/30 11:41:27;;;;;;;;;61.00;49.00;;;;;;;;5031649;28;51127;-58
2022/03/30 11:46:38;;;;;;;;;60.50;45.50;;;;;;;;5031790;28;51119;-58
2022/03/30 11:49:04;;;;;;;;;55.50;44.50;;;;;;;;5031917;28;51234;-59
2022/03/30 11:51:29;;;;;;;;;53.25;44.00;;;;;;;;5031032;28;51031;-59
2022/03/30 11:54:10;;;;;;;;;57.50;46.50;;;;;;;;5032650;28;51024;-59
2022/03/30 11:56:35;;;;;;;;;60.25;48.00;;;;;;;;5018122;28;51044;-59
2022/03/30 11:59:01;;;;;;;;;62.50;48.50;;;;;;;;5026470;28;51143;-59
2022/03/30 12:01:26;;;;;;;;;60.75;49.00;;;;;;;;5027924;28;50987;-59
2022/03/30 12:03:54;;;;;;;;;56.00;45.00;;;;;;;;5011884;28;51054;-59
2022/03/30 12:06:20;;;;;;;;;55.75;45.25;;;;;;;;5011412;28;50875;-59
2022/03/30 12:08:49;;;;;;;;;51.00;42.75;;;;;;;;5011661;28;51123;-59
2022/03/30 12:11:16;;;;;;;;;61.00;48.00;;;;;;;;5011704;28;50942;-59
2022/03/30 12:13:42;;;;;;;;;58.50;47.75;;;;;;;;5011756;28;51025;-58
2022/03/30 12:16:11;;;;;;;;;60.25;47.00;;;;;;;;5030357;28;51044;-59
2022/03/30 12:18:46;;;;;;;;;56.75;45.00;;;;;;;;5031873;28;50879;-59
2022/03/30 12:21:14;;;;;;;;;50.50;42.00;;;;;;;;5031126;28;52086;-58
2022/03/30 12:23:49;;;;;;;;;53.00;43.25;;;;;;;;5031328;28;51243;-59
2022/03/30 12:26:14;;;;;;;;;57.25;44.75;;;;;;;;5031571;28;51064;-58
2022/03/30 12:28:40;;;;;;;;;56.00;44.00;;;;;;;;5031289;28;51012;-58
2022/03/30 12:31:07;;;;;;;;;56.75;46.75;;;;;;;;5031133;28;51836;-58
2022/03/30 12:33:41;;;;;;;;;55.50;45.00;;;;;;;;5029380;28;51131;-60
2022/03/30 12:36:12;;;;;;;;;55.75;45.00;;;;;;;;5020812;28;51113;-59
2022/03/30 12:38:37;;;;;;;;;54.25;45.25;;;;;;;;5031530;28;51036;-59
2022/03/30 12:41:03;;;;;;;;;53.50;44.25;;;;;;;;5029338;28;51724;-59
2022/03/30 12:43:29;;;;;;;;;57.25;47.25;;;;;;;;5031222;28;51061;-59
2022/03/30 12:45:54;;;;;;;;;56.00;44.75;;;;;;;;5030267;28;51059;-60
2022/03/30 12:48:29;;;;;;;;;57.50;46.25;;;;;;;;5031176;28;51492;-59
2022/03/30 12:50:58;;;;;;;;;57.75;47.50;;;;;;;;5030142;28;51942;-59
2022/03/30 12:53:29;;;;;;;;;62.25;49.25;;;;;;;;5030703;28;50907;-59
2022/03/30 12:55:54;;;;;;;;;57.00;46.00;;;;;;;;5028175;28;51237;-58
2022/03/30 12:58:22;;;;;;;;;53.25;44.25;;;;;;;;5014154;28;50978;-59
2022/03/30 13:00:49;;;;;;;;;61.75;46.75;;;;;;;;5014538;28;51850;-58
2022/03/30 13:03:27;;;;;;;;;58.25;47.00;;;;;;;;5014678;28;50986;-59
2022/03/30 13:06:02;;;;;;;;;55.00;44.50;;;;;;;;5014148;28;50951;-59
2022/03/30 13:08:27;;;;;;;;;56.25;44.00;;;;;;;;5014574;28;51068;-59
2022/03/30 13:10:55;;;;;;;;;49.75;41.50;;;;;;;;5014124;28;52641;-59
2022/03/30 13:13:22;;;;;;;;;52.75;42.00;;;;;;;;5014511;28;51028;-58
2022/03/30 13:15:47;;;;;;;;;51.25;42.25;;;;;;;;5025808;28;51091;-60
2022/03/30 13:18:18;;;;;;;;;51.50;43.00;;;;;;;;5025785;28;51008;-59
2022/03/30 13:20:52;;;;;;;;;56.00;45.00;;;;;;;;5034325;28;51913;-58
2022/03/30 13:23:17;;;;;;;;;55.50;44.75;;;;;;;;5034583;28;51119;-59
2022/03/30 13:25:43;;;;;;;;;52.50;42.75;;;;;;;;5034756;28;51219;-58
2022/03/30 13:28:20;;;;;;;;;56.75;46.00;;;;;;;;5034547;28;51089;-58
2022/03/30 13:30:45;;;;;;;;;57.00;46.50;;;;;;;;5034334;28;51927;-59
2022/03/30 13:33:10;;;;;;;;;56.00;44.50;;;;;;;;5034380;28;51096;-59
2022/03/30 13:35:35;;;;;;;;;58.50;46.75;;;;;;;;5034617;28;50962;-59
2022/03/30 13:38:01;;;;;;;;;58.25;45.25;;;;;;;;5034412;28;51084;-59
2022/03/30 13:40:26;;;;;;;;;58.50;46.00;;;;;;;;5033976;28;52718;-58
2022/03/30 13:42:53;;;;;;;;;57.25;46.25;;;;;;;;5032798;28;50966;-59
2022/03/30 13:45:18;;;;;;;;;57.50;47.25;;;;;;;;5034063;28;51262;-58
2022/03/30 13:47:44;;;;;;;;;57.00;45.50;;;;;;;;5034417;28;51343;-60
2022/03/30 13:50:10;;;;;;;;;56.25;45.00;;;;;;;;5033541;28;51166;-58
2022/03/30 13:52:36;;;;;;;;;54.50;44.00;;;;;;;;5034005;28;50958;-59
2022/03/30 13:55:01;;;;;;;;;55.50;45.00;;;;;;;;5034889;28;51144;-59
2022/03/30 13:57:27;;;;;;;;;54.50;43.75;;;;;;;;5035121;28;51159;-59
2022/03/30 13:59:52;;;;;;;;;49.00;41.00;;;;;;;;5030911;28;51152;-58
2022/03/30 14:02:17;;;;;;;;;57.25;47.00;;;;;;;;5022534;28;51089;-59
2022/03/30 14:04:43;;;;;;;;;51.25;42.00;;;;;;;;5014625;28;50906;-58
2022/03/30 14:07:08;;;;;;;;;55.50;44.75;;;;;;;;5013923;28;51109;-58
2022/03/30 14:09:34;;;;;;;;;53.25;42.50;;;;;;;;5013900;28;52105;-58
2022/03/30 14:11:59;;;;;;;;;53.75;43.25;;;;;;;;5014520;28;50995;-59
2022/03/30 14:14:25;;;;;;;;;53.00;43.00;;;;;;;;5014385;28;51044;-59
2022/03/30 14:16:50;;;;;;;;;53.75;45.00;;;;;;;;5014728;28;50981;-58
2022/03/30 14:19:16;;;;;;;;;48.75;40.75;;;;;;;;5014062;28;51353;-59
2022/03/30 14:21:43;;;;;;;;;52.50;42.75;;;;;;;;5013884;28;50996;-59
2022/03/30 14:24:09;;;;;;;;;49.50;40.25;;;;;;;;5014243;28;51078;-59
2022/03/30 14:26:34;;;;;;;;;51.00;42.00;;;;;;;;5014385;28;51243;-59